sensor_id;sensor_type;location;lat;lon;timestamp;P1;durP1;ratioP1;P2;durP2;ratioP2
11245;SDS011;59870;50.106;8.580;2022-11-30T00:01:18;19.97;;;17.87;;
11245;SDS011;59870;50.106;8.580;2022-11-30T00:03:47;20.07;;;17.63;;
11245;SDS011;59870;50.106;8.580;2022-11-30T00:06:15;20.77;;;18.87;;
11245;SDS011;59870;50.106;8.580;2022-11-30T00:08:51;20.27;;;18.30;;
11245;SDS011;59870;50.106;8.580;2022-11-30T00:11:21;20.70;;;18.67;;
11245;SDS011;59870;50.106;8.580;2022-11-30T00:13:49;20.73;;;18.70;;
11245;SDS011;59870;50.106;8.580;2022-11-30T00:16:17;25.73;;;21.50;;
11245;SDS011;59870;50.106;8.580;2022-11-30T00:18:44;30.00;;;22.07;;
11245;SDS011;59870;50.106;8.580;2022-11-30T00:21:12;22.27;;;19.23;;
11245;SDS011;59870;50.106;8.580;2022-11-30T00:23:41;22.17;;;18.93;;
11245;SDS011;59870;50.106;8.580;2022-11-30T00:26:11;25.77;;;19.63;;
11245;SDS011;59870;50.106;8.580;2022-11-30T00:28:40;22.37;;;19.23;;
11245;SDS011;59870;50.106;8.580;2022-11-30T00:31:09;22.07;;;19.53;;
11245;SDS011;59870;50.106;8.580;2022-11-30T00:33:38;22.80;;;20.40;;
11245;SDS011;59870;50.106;8.580;2022-11-30T00:36:08;21.93;;;19.57;;
11245;SDS011;59870;50.106;8.580;2022-11-30T00:38:39;23.33;;;20.67;;
11245;SDS011;59870;50.106;8.580;2022-11-30T00:41:06;23.27;;;20.83;;
11245;SDS011;59870;50.106;8.580;2022-11-30T00:43:34;25.23;;;21.47;;
11245;SDS011;59870;50.106;8.580;2022-11-30T00:46:01;24.60;;;20.87;;
11245;SDS011;59870;50.106;8.580;2022-11-30T00:48:29;23.47;;;20.97;;
11245;SDS011;59870;50.106;8.580;2022-11-30T00:50:56;22.13;;;19.80;;
11245;SDS011;59870;50.106;8.580;2022-11-30T00:53:24;23.97;;;20.20;;
11245;SDS011;59870;50.106;8.580;2022-11-30T00:55:51;23.10;;;19.97;;
11245;SDS011;59870;50.106;8.580;2022-11-30T00:58:19;24.93;;;21.77;;
11245;SDS011;59870;50.106;8.580;2022-11-30T01:00:46;24.17;;;21.57;;
11245;SDS011;59870;50.106;8.580;2022-11-30T01:03:13;23.50;;;21.00;;
11245;SDS011;59870;50.106;8.580;2022-11-30T01:05:41;25.70;;;22.37;;
11245;SDS011;59870;50.106;8.580;2022-11-30T01:08:09;24.80;;;20.43;;
11245;SDS011;59870;50.106;8.580;2022-11-30T01:10:38;23.30;;;21.13;;
11245;SDS011;59870;50.106;8.580;2022-11-30T01:13:07;22.87;;;20.40;;
11245;SDS011;59870;50.106;8.580;2022-11-30T01:15:35;22.57;;;19.83;;
11245;SDS011;59870;50.106;8.580;2022-11-30T01:18:08;25.77;;;20.53;;
11245;SDS011;59870;50.106;8.580;2022-11-30T01:20:42;21.00;;;18.90;;
11245;SDS011;59870;50.106;8.580;2022-11-30T01:23:10;22.83;;;20.40;;
11245;SDS011;59870;50.106;8.580;2022-11-30T01:25:37;22.10;;;19.80;;
11245;SDS011;59870;50.106;8.580;2022-11-30T01:28:05;22.57;;;20.33;;
11245;SDS011;59870;50.106;8.580;2022-11-30T01:30:33;23.00;;;20.60;;
11245;SDS011;59870;50.106;8.580;2022-11-30T01:33:01;20.57;;;18.47;;
11245;SDS011;59870;50.106;8.580;2022-11-30T01:35:29;22.10;;;19.63;;
11245;SDS011;59870;50.106;8.580;2022-11-30T01:37:57;21.93;;;19.40;;
11245;SDS011;59870;50.106;8.580;2022-11-30T01:40:24;21.80;;;19.60;;
11245;SDS011;59870;50.106;8.580;2022-11-30T01:42:52;20.83;;;18.67;;
11245;SDS011;59870;50.106;8.580;2022-11-30T01:45:19;20.57;;;18.57;;
11245;SDS011;59870;50.106;8.580;2022-11-30T01:47:48;20.53;;;18.50;;
11245;SDS011;59870;50.106;8.580;2022-11-30T01:50:20;18.63;;;16.97;;
11245;SDS011;59870;50.106;8.580;2022-11-30T01:52:54;21.67;;;18.20;;
11245;SDS011;59870;50.106;8.580;2022-11-30T01:55:42;19.73;;;17.93;;
11245;SDS011;59870;50.106;8.580;2022-11-30T01:58:15;19.93;;;17.93;;
11245;SDS011;59870;50.106;8.580;2022-11-30T02:00:49;20.57;;;18.43;;
11245;SDS011;59870;50.106;8.580;2022-11-30T02:05:47;22.10;;;18.07;;
11245;SDS011;59870;50.106;8.580;2022-11-30T02:08:15;19.67;;;17.67;;
11245;SDS011;59870;50.106;8.580;2022-11-30T02:10:51;21.30;;;18.73;;
11245;SDS011;59870;50.106;8.580;2022-11-30T02:13:29;19.50;;;17.23;;
11245;SDS011;59870;50.106;8.580;2022-11-30T02:21:58;21.27;;;19.07;;
11245;SDS011;59870;50.106;8.580;2022-11-30T02:27:22;21.60;;;19.10;;
11245;SDS011;59870;50.106;8.580;2022-11-30T02:32:38;21.67;;;18.30;;
11245;SDS011;59870;50.106;8.580;2022-11-30T02:35:34;19.93;;;17.80;;
11245;SDS011;59870;50.106;8.580;2022-11-30T02:38:04;19.97;;;17.87;;
11245;SDS011;59870;50.106;8.580;2022-11-30T02:40:32;20.27;;;17.87;;
11245;SDS011;59870;50.106;8.580;2022-11-30T02:42:59;21.20;;;19.10;;
11245;SDS011;59870;50.106;8.580;2022-11-30T02:45:32;18.53;;;16.60;;
11245;SDS011;59870;50.106;8.580;2022-11-30T02:48:11;19.97;;;17.40;;
11245;SDS011;59870;50.106;8.580;2022-11-30T02:50:45;20.13;;;18.17;;
11245;SDS011;59870;50.106;8.580;2022-11-30T02:53:15;19.63;;;17.63;;
11245;SDS011;59870;50.106;8.580;2022-11-30T02:55:43;19.63;;;17.67;;
11245;SDS011;59870;50.106;8.580;2022-11-30T02:58:10;18.70;;;17.00;;
11245;SDS011;59870;50.106;8.580;2022-11-30T03:00:40;20.40;;;18.30;;
11245;SDS011;59870;50.106;8.580;2022-11-30T03:03:08;19.20;;;17.17;;
11245;SDS011;59870;50.106;8.580;2022-11-30T03:05:35;20.73;;;18.63;;
11245;SDS011;59870;50.106;8.580;2022-11-30T03:08:03;19.27;;;17.20;;
11245;SDS011;59870;50.106;8.580;2022-11-30T03:10:30;19.27;;;17.40;;
11245;SDS011;59870;50.106;8.580;2022-11-30T03:12:58;18.10;;;16.37;;
11245;SDS011;59870;50.106;8.580;2022-11-30T03:15:26;19.87;;;17.73;;
11245;SDS011;59870;50.106;8.580;2022-11-30T03:17:54;19.23;;;16.37;;
11245;SDS011;59870;50.106;8.580;2022-11-30T03:20:21;19.20;;;17.30;;
11245;SDS011;59870;50.106;8.580;2022-11-30T03:22:49;21.20;;;16.43;;
11245;SDS011;59870;50.106;8.580;2022-11-30T03:25:16;18.60;;;16.70;;
11245;SDS011;59870;50.106;8.580;2022-11-30T03:27:43;18.80;;;16.87;;
11245;SDS011;59870;50.106;8.580;2022-11-30T03:30:11;19.03;;;17.27;;
11245;SDS011;59870;50.106;8.580;2022-11-30T03:32:38;19.97;;;18.03;;
11245;SDS011;59870;50.106;8.580;2022-11-30T03:35:06;18.67;;;16.80;;
11245;SDS011;59870;50.106;8.580;2022-11-30T03:37:33;20.07;;;18.07;;
11245;SDS011;59870;50.106;8.580;2022-11-30T03:40:01;19.87;;;17.60;;
11245;SDS011;59870;50.106;8.580;2022-11-30T03:42:29;19.27;;;17.27;;
11245;SDS011;59870;50.106;8.580;2022-11-30T03:44:56;18.57;;;16.63;;
11245;SDS011;59870;50.106;8.580;2022-11-30T03:47:23;20.27;;;17.50;;
11245;SDS011;59870;50.106;8.580;2022-11-30T03:49:51;19.50;;;17.40;;
11245;SDS011;59870;50.106;8.580;2022-11-30T03:52:18;19.60;;;17.70;;
11245;SDS011;59870;50.106;8.580;2022-11-30T03:54:45;19.57;;;17.60;;
11245;SDS011;59870;50.106;8.580;2022-11-30T03:57:13;19.27;;;17.37;;
11245;SDS011;59870;50.106;8.580;2022-11-30T03:59:40;20.97;;;16.57;;
11245;SDS011;59870;50.106;8.580;2022-11-30T04:02:08;20.57;;;17.33;;
11245;SDS011;59870;50.106;8.580;2022-11-30T04:04:35;19.43;;;16.57;;
11245;SDS011;59870;50.106;8.580;2022-11-30T04:07:03;16.80;;;15.10;;
11245;SDS011;59870;50.106;8.580;2022-11-30T04:09:30;17.67;;;15.67;;
11245;SDS011;59870;50.106;8.580;2022-11-30T04:11:58;18.43;;;16.17;;
11245;SDS011;59870;50.106;8.580;2022-11-30T04:14:25;20.83;;;15.80;;
11245;SDS011;59870;50.106;8.580;2022-11-30T04:16:53;17.40;;;15.57;;
11245;SDS011;59870;50.106;8.580;2022-11-30T04:19:20;17.67;;;14.57;;
11245;SDS011;59870;50.106;8.580;2022-11-30T04:21:48;20.13;;;15.40;;
11245;SDS011;59870;50.106;8.580;2022-11-30T04:24:17;18.97;;;15.97;;
11245;SDS011;59870;50.106;8.580;2022-11-30T04:26:44;18.23;;;15.97;;
11245;SDS011;59870;50.106;8.580;2022-11-30T04:29:12;20.47;;;15.83;;
11245;SDS011;59870;50.106;8.580;2022-11-30T04:31:39;16.33;;;14.80;;
11245;SDS011;59870;50.106;8.580;2022-11-30T04:34:07;18.27;;;16.43;;
11245;SDS011;59870;50.106;8.580;2022-11-30T04:36:35;17.87;;;14.70;;
11245;SDS011;59870;50.106;8.580;2022-11-30T04:39:02;18.17;;;16.13;;
11245;SDS011;59870;50.106;8.580;2022-11-30T04:41:30;18.13;;;16.27;;
11245;SDS011;59870;50.106;8.580;2022-11-30T04:43:57;17.00;;;14.90;;
11245;SDS011;59870;50.106;8.580;2022-11-30T04:46:25;18.27;;;15.00;;
11245;SDS011;59870;50.106;8.580;2022-11-30T04:48:52;17.97;;;16.13;;
11245;SDS011;59870;50.106;8.580;2022-11-30T04:51:20;17.70;;;15.53;;
11245;SDS011;59870;50.106;8.580;2022-11-30T04:53:47;20.10;;;15.83;;
11245;SDS011;59870;50.106;8.580;2022-11-30T04:56:15;18.67;;;15.67;;
11245;SDS011;59870;50.106;8.580;2022-11-30T04:58:42;19.10;;;15.33;;
11245;SDS011;59870;50.106;8.580;2022-11-30T05:01:09;17.03;;;15.33;;
11245;SDS011;59870;50.106;8.580;2022-11-30T05:03:37;17.93;;;16.13;;
11245;SDS011;59870;50.106;8.580;2022-11-30T05:06:05;17.37;;;15.23;;
11245;SDS011;59870;50.106;8.580;2022-11-30T05:08:33;18.80;;;16.67;;
11245;SDS011;59870;50.106;8.580;2022-11-30T05:11:00;18.27;;;16.17;;
11245;SDS011;59870;50.106;8.580;2022-11-30T05:13:27;21.47;;;15.67;;
11245;SDS011;59870;50.106;8.580;2022-11-30T05:15:55;19.53;;;15.27;;
11245;SDS011;59870;50.106;8.580;2022-11-30T05:18:23;15.97;;;13.73;;
11245;SDS011;59870;50.106;8.580;2022-11-30T05:20:51;16.67;;;15.07;;
11245;SDS011;59870;50.106;8.580;2022-11-30T05:23:19;17.90;;;14.50;;
11245;SDS011;59870;50.106;8.580;2022-11-30T05:25:47;16.97;;;14.77;;
11245;SDS011;59870;50.106;8.580;2022-11-30T05:28:14;20.00;;;14.73;;
11245;SDS011;59870;50.106;8.580;2022-11-30T05:30:42;20.27;;;15.67;;
11245;SDS011;59870;50.106;8.580;2022-11-30T05:33:10;19.73;;;16.57;;
11245;SDS011;59870;50.106;8.580;2022-11-30T05:35:38;25.43;;;14.87;;
11245;SDS011;59870;50.106;8.580;2022-11-30T05:38:05;15.93;;;14.43;;
11245;SDS011;59870;50.106;8.580;2022-11-30T05:40:33;19.93;;;16.17;;
11245;SDS011;59870;50.106;8.580;2022-11-30T05:43:01;19.10;;;15.83;;
11245;SDS011;59870;50.106;8.580;2022-11-30T05:45:30;21.53;;;15.93;;
11245;SDS011;59870;50.106;8.580;2022-11-30T05:47:57;17.80;;;15.77;;
11245;SDS011;59870;50.106;8.580;2022-11-30T05:50:25;22.17;;;16.43;;
11245;SDS011;59870;50.106;8.580;2022-11-30T05:52:53;18.20;;;16.10;;
11245;SDS011;59870;50.106;8.580;2022-11-30T05:55:27;19.37;;;16.53;;
11245;SDS011;59870;50.106;8.580;2022-11-30T05:57:55;18.70;;;16.10;;
11245;SDS011;59870;50.106;8.580;2022-11-30T06:00:27;19.77;;;14.80;;
11245;SDS011;59870;50.106;8.580;2022-11-30T06:02:55;19.70;;;15.60;;
11245;SDS011;59870;50.106;8.580;2022-11-30T06:11:10;19.67;;;16.57;;
11245;SDS011;59870;50.106;8.580;2022-11-30T06:13:38;20.90;;;15.97;;
11245;SDS011;59870;50.106;8.580;2022-11-30T06:16:06;19.33;;;16.63;;
11245;SDS011;59870;50.106;8.580;2022-11-30T06:18:35;18.30;;;16.43;;
11245;SDS011;59870;50.106;8.580;2022-11-30T06:21:04;16.60;;;14.40;;
11245;SDS011;59870;50.106;8.580;2022-11-30T06:23:33;19.10;;;16.50;;
11245;SDS011;59870;50.106;8.580;2022-11-30T06:26:06;16.90;;;15.13;;
11245;SDS011;59870;50.106;8.580;2022-11-30T06:28:35;19.57;;;17.13;;
11245;SDS011;59870;50.106;8.580;2022-11-30T06:31:03;19.97;;;17.33;;
11245;SDS011;59870;50.106;8.580;2022-11-30T06:33:32;18.67;;;15.67;;
11245;SDS011;59870;50.106;8.580;2022-11-30T06:36:01;20.33;;;16.53;;
11245;SDS011;59870;50.106;8.580;2022-11-30T06:38:28;17.90;;;16.00;;
11245;SDS011;59870;50.106;8.580;2022-11-30T06:41:03;22.90;;;17.80;;
11245;SDS011;59870;50.106;8.580;2022-11-30T06:43:35;22.50;;;17.60;;
11245;SDS011;59870;50.106;8.580;2022-11-30T06:46:04;20.80;;;17.23;;
11245;SDS011;59870;50.106;8.580;2022-11-30T06:48:33;33.20;;;20.33;;
11245;SDS011;59870;50.106;8.580;2022-11-30T06:51:03;20.57;;;17.20;;
11245;SDS011;59870;50.106;8.580;2022-11-30T06:53:32;28.10;;;18.73;;
11245;SDS011;59870;50.106;8.580;2022-11-30T06:56:04;24.87;;;18.20;;
11245;SDS011;59870;50.106;8.580;2022-11-30T06:58:40;22.17;;;18.17;;
11245;SDS011;59870;50.106;8.580;2022-11-30T07:01:08;21.30;;;17.83;;
11245;SDS011;59870;50.106;8.580;2022-11-30T07:03:39;19.33;;;16.50;;
11245;SDS011;59870;50.106;8.580;2022-11-30T07:06:08;21.10;;;17.57;;
11245;SDS011;59870;50.106;8.580;2022-11-30T07:08:39;18.83;;;16.60;;
11245;SDS011;59870;50.106;8.580;2022-11-30T07:11:07;23.83;;;17.40;;
11245;SDS011;59870;50.106;8.580;2022-11-30T07:13:35;21.00;;;17.17;;
11245;SDS011;59870;50.106;8.580;2022-11-30T07:16:04;22.07;;;18.07;;
11245;SDS011;59870;50.106;8.580;2022-11-30T07:18:33;25.03;;;17.47;;
11245;SDS011;59870;50.106;8.580;2022-11-30T07:21:02;20.80;;;18.27;;
11245;SDS011;59870;50.106;8.580;2022-11-30T07:23:30;23.30;;;18.03;;
11245;SDS011;59870;50.106;8.580;2022-11-30T07:26:23;23.40;;;16.73;;
11245;SDS011;59870;50.106;8.580;2022-11-30T07:28:51;25.80;;;18.57;;
11245;SDS011;59870;50.106;8.580;2022-11-30T07:31:22;25.20;;;18.57;;
11245;SDS011;59870;50.106;8.580;2022-11-30T07:33:55;21.10;;;18.87;;
11245;SDS011;59870;50.106;8.580;2022-11-30T07:36:24;24.23;;;19.00;;
11245;SDS011;59870;50.106;8.580;2022-11-30T07:38:52;24.00;;;17.87;;
11245;SDS011;59870;50.106;8.580;2022-11-30T07:41:19;24.33;;;19.63;;
11245;SDS011;59870;50.106;8.580;2022-11-30T07:43:48;28.67;;;19.30;;
11245;SDS011;59870;50.106;8.580;2022-11-30T07:46:16;24.37;;;19.73;;
11245;SDS011;59870;50.106;8.580;2022-11-30T07:51:27;26.13;;;20.30;;
11245;SDS011;59870;50.106;8.580;2022-11-30T07:53:55;25.90;;;20.77;;
11245;SDS011;59870;50.106;8.580;2022-11-30T07:56:23;26.17;;;20.73;;
11245;SDS011;59870;50.106;8.580;2022-11-30T07:58:53;25.20;;;18.97;;
11245;SDS011;59870;50.106;8.580;2022-11-30T08:01:23;32.63;;;21.27;;
11245;SDS011;59870;50.106;8.580;2022-11-30T08:03:52;26.17;;;20.30;;
11245;SDS011;59870;50.106;8.580;2022-11-30T08:06:21;23.73;;;18.73;;
11245;SDS011;59870;50.106;8.580;2022-11-30T08:08:51;27.03;;;18.60;;
11245;SDS011;59870;50.106;8.580;2022-11-30T08:11:21;26.03;;;18.53;;
11245;SDS011;59870;50.106;8.580;2022-11-30T08:13:50;23.90;;;18.70;;
11245;SDS011;59870;50.106;8.580;2022-11-30T08:16:22;29.07;;;21.03;;
11245;SDS011;59870;50.106;8.580;2022-11-30T08:18:51;28.20;;;19.30;;
11245;SDS011;59870;50.106;8.580;2022-11-30T08:21:21;32.97;;;21.73;;
11245;SDS011;59870;50.106;8.580;2022-11-30T08:23:52;26.63;;;20.50;;
11245;SDS011;59870;50.106;8.580;2022-11-30T08:26:23;25.63;;;19.63;;
11245;SDS011;59870;50.106;8.580;2022-11-30T08:28:51;30.43;;;19.57;;
11245;SDS011;59870;50.106;8.580;2022-11-30T08:31:22;28.07;;;20.53;;
11245;SDS011;59870;50.106;8.580;2022-11-30T08:33:55;27.03;;;20.57;;
11245;SDS011;59870;50.106;8.580;2022-11-30T08:39:29;25.17;;;19.50;;
11245;SDS011;59870;50.106;8.580;2022-11-30T08:42:34;23.77;;;19.17;;
11245;SDS011;59870;50.106;8.580;2022-11-30T08:45:16;32.57;;;19.47;;
11245;SDS011;59870;50.106;8.580;2022-11-30T08:47:43;28.27;;;20.43;;
11245;SDS011;59870;50.106;8.580;2022-11-30T08:50:11;35.03;;;21.80;;
11245;SDS011;59870;50.106;8.580;2022-11-30T08:52:38;31.17;;;22.23;;
11245;SDS011;59870;50.106;8.580;2022-11-30T08:55:06;27.50;;;21.20;;
11245;SDS011;59870;50.106;8.580;2022-11-30T08:57:34;27.67;;;20.83;;
11245;SDS011;59870;50.106;8.580;2022-11-30T09:00:02;29.67;;;21.17;;
11245;SDS011;59870;50.106;8.580;2022-11-30T09:02:30;29.63;;;19.47;;
11245;SDS011;59870;50.106;8.580;2022-11-30T09:04:57;31.93;;;20.53;;
11245;SDS011;59870;50.106;8.580;2022-11-30T09:07:24;30.87;;;20.73;;
11245;SDS011;59870;50.106;8.580;2022-11-30T09:09:52;31.03;;;22.57;;
11245;SDS011;59870;50.106;8.580;2022-11-30T09:12:19;34.07;;;20.63;;
11245;SDS011;59870;50.106;8.580;2022-11-30T09:14:47;30.10;;;20.97;;
11245;SDS011;59870;50.106;8.580;2022-11-30T09:17:23;28.80;;;21.40;;
11245;SDS011;59870;50.106;8.580;2022-11-30T09:19:51;27.30;;;21.23;;
11245;SDS011;59870;50.106;8.580;2022-11-30T09:22:18;28.93;;;21.13;;
11245;SDS011;59870;50.106;8.580;2022-11-30T09:24:46;24.90;;;19.00;;
11245;SDS011;59870;50.106;8.580;2022-11-30T09:27:14;28.40;;;19.70;;
11245;SDS011;59870;50.106;8.580;2022-11-30T09:29:41;28.80;;;19.93;;
11245;SDS011;59870;50.106;8.580;2022-11-30T09:32:09;27.63;;;19.10;;
11245;SDS011;59870;50.106;8.580;2022-11-30T09:34:37;31.17;;;20.87;;
11245;SDS011;59870;50.106;8.580;2022-11-30T09:37:05;31.47;;;21.03;;
11245;SDS011;59870;50.106;8.580;2022-11-30T09:39:32;27.17;;;19.43;;
11245;SDS011;59870;50.106;8.580;2022-11-30T09:50:21;27.07;;;19.60;;
11245;SDS011;59870;50.106;8.580;2022-11-30T09:53:02;27.03;;;20.27;;
11245;SDS011;59870;50.106;8.580;2022-11-30T09:55:35;25.97;;;19.77;;
11245;SDS011;59870;50.106;8.580;2022-11-30T09:58:05;33.47;;;20.57;;
11245;SDS011;59870;50.106;8.580;2022-11-30T10:00:50;28.53;;;19.63;;
11245;SDS011;59870;50.106;8.580;2022-11-30T10:03:18;29.80;;;20.67;;
11245;SDS011;59870;50.106;8.580;2022-11-30T10:09:08;33.40;;;21.00;;
11245;SDS011;59870;50.106;8.580;2022-11-30T10:25:57;34.47;;;22.07;;
11245;SDS011;59870;50.106;8.580;2022-11-30T10:28:33;33.97;;;23.07;;
11245;SDS011;59870;50.106;8.580;2022-11-30T10:31:19;35.93;;;21.83;;
11245;SDS011;59870;50.106;8.580;2022-11-30T10:33:54;32.47;;;22.47;;
11245;SDS011;59870;50.106;8.580;2022-11-30T10:39:12;28.27;;;21.00;;
11245;SDS011;59870;50.106;8.580;2022-11-30T10:41:50;31.90;;;20.53;;
11245;SDS011;59870;50.106;8.580;2022-11-30T10:44:33;33.93;;;21.23;;
11245;SDS011;59870;50.106;8.580;2022-11-30T10:47:09;33.10;;;21.10;;
11245;SDS011;59870;50.106;8.580;2022-11-30T10:49:40;31.23;;;21.73;;
11245;SDS011;59870;50.106;8.580;2022-11-30T10:52:15;30.57;;;20.77;;
11245;SDS011;59870;50.106;8.580;2022-11-30T10:54:48;28.77;;;21.30;;
11245;SDS011;59870;50.106;8.580;2022-11-30T10:57:19;28.63;;;21.00;;
11245;SDS011;59870;50.106;8.580;2022-11-30T10:59:53;30.57;;;21.57;;
11245;SDS011;59870;50.106;8.580;2022-11-30T11:02:42;27.80;;;20.20;;
11245;SDS011;59870;50.106;8.580;2022-11-30T11:05:19;30.87;;;22.10;;
11245;SDS011;59870;50.106;8.580;2022-11-30T11:10:18;27.57;;;20.27;;
11245;SDS011;59870;50.106;8.580;2022-11-30T11:12:53;33.57;;;22.20;;
11245;SDS011;59870;50.106;8.580;2022-11-30T11:15:25;28.27;;;21.03;;
11245;SDS011;59870;50.106;8.580;2022-11-30T11:20:48;24.60;;;19.00;;
11245;SDS011;59870;50.106;8.580;2022-11-30T11:23:38;27.13;;;20.17;;
11245;SDS011;59870;50.106;8.580;2022-11-30T11:26:14;23.30;;;20.13;;
11245;SDS011;59870;50.106;8.580;2022-11-30T11:28:46;22.07;;;19.83;;
11245;SDS011;59870;50.106;8.580;2022-11-30T11:33:55;19.80;;;17.80;;
11245;SDS011;59870;50.106;8.580;2022-11-30T11:36:24;22.13;;;19.30;;
11245;SDS011;59870;50.106;8.580;2022-11-30T11:38:54;20.77;;;18.43;;
11245;SDS011;59870;50.106;8.580;2022-11-30T11:41:24;19.67;;;17.60;;
11245;SDS011;59870;50.106;8.580;2022-11-30T11:46:32;20.53;;;17.90;;
11245;SDS011;59870;50.106;8.580;2022-11-30T11:49:06;20.97;;;18.70;;
11245;SDS011;59870;50.106;8.580;2022-11-30T11:51:46;20.40;;;18.30;;
11245;SDS011;59870;50.106;8.580;2022-11-30T11:57:19;19.83;;;17.80;;
11245;SDS011;59870;50.106;8.580;2022-11-30T11:59:51;27.27;;;21.50;;
11245;SDS011;59870;50.106;8.580;2022-11-30T12:02:46;21.93;;;19.87;;
11245;SDS011;59870;50.106;8.580;2022-11-30T12:05:28;22.43;;;20.00;;
11245;SDS011;59870;50.106;8.580;2022-11-30T12:10:48;22.53;;;20.03;;
11245;SDS011;59870;50.106;8.580;2022-11-30T12:13:26;25.03;;;20.87;;
11245;SDS011;59870;50.106;8.580;2022-11-30T12:18:57;25.10;;;21.37;;
11245;SDS011;59870;50.106;8.580;2022-11-30T12:22:14;24.70;;;20.73;;
11245;SDS011;59870;50.106;8.580;2022-11-30T12:27:38;27.80;;;20.73;;
11245;SDS011;59870;50.106;8.580;2022-11-30T12:36:12;23.17;;;19.57;;
11245;SDS011;59870;50.106;8.580;2022-11-30T12:38:58;24.47;;;20.80;;
11245;SDS011;59870;50.106;8.580;2022-11-30T12:47:07;25.30;;;19.60;;
11245;SDS011;59870;50.106;8.580;2022-11-30T12:52:43;26.60;;;21.80;;
11245;SDS011;59870;50.106;8.580;2022-11-30T12:55:24;27.90;;;22.20;;
11245;SDS011;59870;50.106;8.580;2022-11-30T13:04:03;30.23;;;22.40;;
11245;SDS011;59870;50.106;8.580;2022-11-30T13:06:46;24.70;;;21.23;;
11245;SDS011;59870;50.106;8.580;2022-11-30T13:09:21;25.70;;;20.77;;
11245;SDS011;59870;50.106;8.580;2022-11-30T13:15:05;27.07;;;22.10;;
11245;SDS011;59870;50.106;8.580;2022-11-30T13:17:42;26.43;;;21.23;;
11245;SDS011;59870;50.106;8.580;2022-11-30T13:20:25;25.27;;;21.97;;
11245;SDS011;59870;50.106;8.580;2022-11-30T13:23:17;33.90;;;22.20;;
11245;SDS011;59870;50.106;8.580;2022-11-30T13:25:48;32.17;;;23.53;;
11245;SDS011;59870;50.106;8.580;2022-11-30T13:36:34;33.20;;;23.47;;
11245;SDS011;59870;50.106;8.580;2022-11-30T13:41:50;37.73;;;24.10;;
11245;SDS011;59870;50.106;8.580;2022-11-30T13:44:46;34.37;;;24.47;;
11245;SDS011;59870;50.106;8.580;2022-11-30T13:49:44;37.40;;;25.20;;
11245;SDS011;59870;50.106;8.580;2022-11-30T13:52:12;37.17;;;24.43;;
11245;SDS011;59870;50.106;8.580;2022-11-30T13:54:50;36.83;;;24.97;;
11245;SDS011;59870;50.106;8.580;2022-11-30T13:59:51;29.40;;;21.83;;
11245;SDS011;59870;50.106;8.580;2022-11-30T14:10:34;33.97;;;24.70;;
11245;SDS011;59870;50.106;8.580;2022-11-30T14:20:39;35.73;;;23.50;;
11245;SDS011;59870;50.106;8.580;2022-11-30T14:23:13;32.83;;;25.87;;
11245;SDS011;59870;50.106;8.580;2022-11-30T14:25:48;31.70;;;23.83;;
11245;SDS011;59870;50.106;8.580;2022-11-30T14:28:18;31.17;;;24.43;;
11245;SDS011;59870;50.106;8.580;2022-11-30T14:30:50;34.93;;;24.77;;
11245;SDS011;59870;50.106;8.580;2022-11-30T14:33:18;31.40;;;24.60;;
11245;SDS011;59870;50.106;8.580;2022-11-30T14:35:54;34.27;;;24.63;;
11245;SDS011;59870;50.106;8.580;2022-11-30T14:38:25;35.83;;;24.27;;
11245;SDS011;59870;50.106;8.580;2022-11-30T14:40:57;35.43;;;23.87;;
11245;SDS011;59870;50.106;8.580;2022-11-30T14:43:24;33.37;;;23.33;;
11245;SDS011;59870;50.106;8.580;2022-11-30T14:45:59;30.67;;;24.57;;
11245;SDS011;59870;50.106;8.580;2022-11-30T14:48:33;31.77;;;23.97;;
11245;SDS011;59870;50.106;8.580;2022-11-30T14:51:01;33.07;;;25.07;;
11245;SDS011;59870;50.106;8.580;2022-11-30T14:53:35;32.00;;;25.00;;
11245;SDS011;59870;50.106;8.580;2022-11-30T14:56:23;31.93;;;26.40;;
11245;SDS011;59870;50.106;8.580;2022-11-30T14:59:15;32.97;;;25.33;;
11245;SDS011;59870;50.106;8.580;2022-11-30T15:01:57;34.27;;;25.67;;
11245;SDS011;59870;50.106;8.580;2022-11-30T15:04:28;33.83;;;25.67;;
11245;SDS011;59870;50.106;8.580;2022-11-30T15:06:56;36.83;;;24.73;;
11245;SDS011;59870;50.106;8.580;2022-11-30T15:09:25;34.77;;;25.17;;
11245;SDS011;59870;50.106;8.580;2022-11-30T15:11:56;32.27;;;23.67;;
11245;SDS011;59870;50.106;8.580;2022-11-30T15:14:27;25.23;;;22.33;;
11245;SDS011;59870;50.106;8.580;2022-11-30T15:16:55;31.77;;;23.57;;
11245;SDS011;59870;50.106;8.580;2022-11-30T15:19:24;29.77;;;22.33;;
11245;SDS011;59870;50.106;8.580;2022-11-30T15:21:55;26.67;;;22.97;;
11245;SDS011;59870;50.106;8.580;2022-11-30T15:24:23;32.00;;;22.37;;
11245;SDS011;59870;50.106;8.580;2022-11-30T15:27:08;31.40;;;21.47;;
11245;SDS011;59870;50.106;8.580;2022-11-30T15:29:49;26.37;;;21.33;;
11245;SDS011;59870;50.106;8.580;2022-11-30T15:32:23;28.07;;;21.07;;
11245;SDS011;59870;50.106;8.580;2022-11-30T15:34:56;24.03;;;21.33;;
11245;SDS011;59870;50.106;8.580;2022-11-30T15:37:34;27.20;;;21.83;;
11245;SDS011;59870;50.106;8.580;2022-11-30T15:40:07;26.73;;;21.13;;
11245;SDS011;59870;50.106;8.580;2022-11-30T15:42:37;30.77;;;22.50;;
11245;SDS011;59870;50.106;8.580;2022-11-30T15:45:11;30.47;;;23.20;;
11245;SDS011;59870;50.106;8.580;2022-11-30T15:47:47;30.30;;;23.53;;
11245;SDS011;59870;50.106;8.580;2022-11-30T15:52:44;25.03;;;21.70;;
11245;SDS011;59870;50.106;8.580;2022-11-30T15:58:25;25.87;;;21.47;;
11245;SDS011;59870;50.106;8.580;2022-11-30T16:03:34;23.77;;;21.27;;
11245;SDS011;59870;50.106;8.580;2022-11-30T16:06:21;27.23;;;22.63;;
11245;SDS011;59870;50.106;8.580;2022-11-30T16:09:17;25.93;;;23.43;;
11245;SDS011;59870;50.106;8.580;2022-11-30T16:11:54;26.10;;;23.50;;
11245;SDS011;59870;50.106;8.580;2022-11-30T16:14:24;21.50;;;19.30;;
11245;SDS011;59870;50.106;8.580;2022-11-30T16:16:51;20.10;;;18.20;;
11245;SDS011;59870;50.106;8.580;2022-11-30T16:19:21;20.17;;;18.17;;
11245;SDS011;59870;50.106;8.580;2022-11-30T16:21:48;19.03;;;17.43;;
11245;SDS011;59870;50.106;8.580;2022-11-30T16:24:17;18.10;;;16.40;;
11245;SDS011;59870;50.106;8.580;2022-11-30T16:26:46;14.50;;;13.10;;
11245;SDS011;59870;50.106;8.580;2022-11-30T16:29:18;14.77;;;13.50;;
11245;SDS011;59870;50.106;8.580;2022-11-30T16:31:46;14.47;;;13.17;;
11245;SDS011;59870;50.106;8.580;2022-11-30T16:34:13;15.53;;;14.13;;
11245;SDS011;59870;50.106;8.580;2022-11-30T16:36:41;15.10;;;13.80;;
11245;SDS011;59870;50.106;8.580;2022-11-30T16:39:10;16.40;;;15.03;;
11245;SDS011;59870;50.106;8.580;2022-11-30T16:41:38;15.83;;;14.47;;
11245;SDS011;59870;50.106;8.580;2022-11-30T16:44:09;15.40;;;14.07;;
11245;SDS011;59870;50.106;8.580;2022-11-30T16:46:40;18.97;;;14.80;;
11245;SDS011;59870;50.106;8.580;2022-11-30T16:49:07;17.47;;;15.87;;
11245;SDS011;59870;50.106;8.580;2022-11-30T16:51:34;16.13;;;14.60;;
11245;SDS011;59870;50.106;8.580;2022-11-30T16:54:02;15.33;;;14.07;;
11245;SDS011;59870;50.106;8.580;2022-11-30T16:56:30;13.97;;;12.67;;
11245;SDS011;59870;50.106;8.580;2022-11-30T16:58:57;14.93;;;13.70;;
11245;SDS011;59870;50.106;8.580;2022-11-30T17:01:29;13.70;;;12.33;;
11245;SDS011;59870;50.106;8.580;2022-11-30T17:06:39;16.73;;;15.27;;